sensor_id;sensor_type;location;lat;lon;timestamp;P1;durP1;ratioP1;P2;durP2;ratioP2
44328;SDS011;30039;51.462;6.892;2023-04-24T00:01:02;0.60;;;0.60;;
44328;SDS011;30039;51.462;6.892;2023-04-24T00:03:48;2.90;;;0.80;;
44328;SDS011;30039;51.462;6.892;2023-04-24T00:06:34;1.13;;;0.82;;
44328;SDS011;30039;51.462;6.892;2023-04-24T00:09:19;0.60;;;0.60;;
44328;SDS011;30039;51.462;6.892;2023-04-24T00:12:05;2.40;;;0.82;;
44328;SDS011;30039;51.462;6.892;2023-04-24T00:14:51;1.10;;;0.60;;
44328;SDS011;30039;51.462;6.892;2023-04-24T00:17:36;0.70;;;0.70;;
44328;SDS011;30039;51.462;6.892;2023-04-24T00:20:22;1.25;;;0.63;;
44328;SDS011;30039;51.462;6.892;2023-04-24T00:23:08;1.80;;;0.70;;
44328;SDS011;30039;51.462;6.892;2023-04-24T00:25:53;1.52;;;0.90;;
44328;SDS011;30039;51.462;6.892;2023-04-24T00:28:39;1.42;;;0.82;;
44328;SDS011;30039;51.462;6.892;2023-04-24T00:31:24;3.45;;;1.20;;
44328;SDS011;30039;51.462;6.892;2023-04-24T00:34:10;1.42;;;0.80;;
44328;SDS011;30039;51.462;6.892;2023-04-24T00:36:57;1.85;;;0.77;;
44328;SDS011;30039;51.462;6.892;2023-04-24T00:39:42;1.73;;;1.17;;
44328;SDS011;30039;51.462;6.892;2023-04-24T00:42:28;2.58;;;1.13;;
44328;SDS011;30039;51.462;6.892;2023-04-24T00:45:14;2.30;;;1.20;;
44328;SDS011;30039;51.462;6.892;2023-04-24T00:48:00;1.52;;;1.00;;
44328;SDS011;30039;51.462;6.892;2023-04-24T00:50:45;1.33;;;1.00;;
44328;SDS011;30039;51.462;6.892;2023-04-24T00:53:31;2.90;;;0.90;;
44328;SDS011;30039;51.462;6.892;2023-04-24T00:56:17;1.92;;;1.10;;
44328;SDS011;30039;51.462;6.892;2023-04-24T00:59:02;1.30;;;0.90;;
44328;SDS011;30039;51.462;6.892;2023-04-24T01:01:48;4.93;;;1.20;;
44328;SDS011;30039;51.462;6.892;2023-04-24T01:04:34;3.30;;;1.10;;
44328;SDS011;30039;51.462;6.892;2023-04-24T01:07:20;1.27;;;1.00;;
44328;SDS011;30039;51.462;6.892;2023-04-24T01:10:06;2.92;;;1.40;;
44328;SDS011;30039;51.462;6.892;2023-04-24T01:12:52;1.55;;;1.20;;
44328;SDS011;30039;51.462;6.892;2023-04-24T01:15:38;2.17;;;1.50;;
44328;SDS011;30039;51.462;6.892;2023-04-24T01:18:24;2.60;;;1.90;;
44328;SDS011;30039;51.462;6.892;2023-04-24T01:21:09;4.13;;;2.20;;
44328;SDS011;30039;51.462;6.892;2023-04-24T01:23:57;4.15;;;2.58;;
44328;SDS011;30039;51.462;6.892;2023-04-24T01:26:43;4.90;;;2.80;;
44328;SDS011;30039;51.462;6.892;2023-04-24T01:29:29;5.40;;;3.05;;
44328;SDS011;30039;51.462;6.892;2023-04-24T01:32:15;3.60;;;2.60;;
44328;SDS011;30039;51.462;6.892;2023-04-24T01:35:01;5.65;;;2.88;;
44328;SDS011;30039;51.462;6.892;2023-04-24T01:37:47;5.43;;;3.00;;
44328;SDS011;30039;51.462;6.892;2023-04-24T01:40:33;5.03;;;2.83;;
44328;SDS011;30039;51.462;6.892;2023-04-24T01:43:19;6.95;;;2.90;;
44328;SDS011;30039;51.462;6.892;2023-04-24T01:46:05;5.00;;;2.75;;
44328;SDS011;30039;51.462;6.892;2023-04-24T01:48:51;6.35;;;2.53;;
44328;SDS011;30039;51.462;6.892;2023-04-24T01:51:37;4.80;;;2.45;;
44328;SDS011;30039;51.462;6.892;2023-04-24T01:54:23;5.03;;;2.30;;
44328;SDS011;30039;51.462;6.892;2023-04-24T01:57:08;4.85;;;2.40;;
44328;SDS011;30039;51.462;6.892;2023-04-24T01:59:54;4.90;;;2.70;;
44328;SDS011;30039;51.462;6.892;2023-04-24T02:02:40;4.78;;;2.53;;
44328;SDS011;30039;51.462;6.892;2023-04-24T02:05:26;2.97;;;2.30;;
44328;SDS011;30039;51.462;6.892;2023-04-24T02:08:11;5.10;;;2.33;;
44328;SDS011;30039;51.462;6.892;2023-04-24T02:10:57;3.67;;;2.38;;
44328;SDS011;30039;51.462;6.892;2023-04-24T02:13:43;6.15;;;2.70;;
44328;SDS011;30039;51.462;6.892;2023-04-24T02:16:28;3.63;;;2.72;;
44328;SDS011;30039;51.462;6.892;2023-04-24T02:19:17;4.53;;;2.92;;
44328;SDS011;30039;51.462;6.892;2023-04-24T02:22:03;5.25;;;2.75;;
44328;SDS011;30039;51.462;6.892;2023-04-24T02:24:48;5.32;;;3.20;;
44328;SDS011;30039;51.462;6.892;2023-04-24T02:27:34;7.63;;;4.00;;
44328;SDS011;30039;51.462;6.892;2023-04-24T02:30:20;6.53;;;3.83;;
44328;SDS011;30039;51.462;6.892;2023-04-24T02:33:05;6.80;;;3.90;;
44328;SDS011;30039;51.462;6.892;2023-04-24T02:35:51;6.38;;;3.88;;
44328;SDS011;30039;51.462;6.892;2023-04-24T02:38:37;9.60;;;4.55;;
44328;SDS011;30039;51.462;6.892;2023-04-24T02:41:23;6.07;;;3.90;;
44328;SDS011;30039;51.462;6.892;2023-04-24T02:44:08;9.48;;;4.65;;
44328;SDS011;30039;51.462;6.892;2023-04-24T02:46:54;8.55;;;4.60;;
44328;SDS011;30039;51.462;6.892;2023-04-24T02:49:39;7.90;;;4.13;;
44328;SDS011;30039;51.462;6.892;2023-04-24T02:52:25;9.65;;;4.45;;
44328;SDS011;30039;51.462;6.892;2023-04-24T02:55:11;7.32;;;4.72;;
44328;SDS011;30039;51.462;6.892;2023-04-24T02:57:56;7.10;;;4.57;;
44328;SDS011;30039;51.462;6.892;2023-04-24T03:00:42;11.35;;;5.10;;
44328;SDS011;30039;51.462;6.892;2023-04-24T03:03:28;8.80;;;5.00;;
44328;SDS011;30039;51.462;6.892;2023-04-24T03:06:14;9.60;;;5.00;;
44328;SDS011;30039;51.462;6.892;2023-04-24T03:09:01;13.45;;;5.55;;
44328;SDS011;30039;51.462;6.892;2023-04-24T03:11:49;9.10;;;5.03;;
44328;SDS011;30039;51.462;6.892;2023-04-24T03:14:34;13.68;;;5.45;;
44328;SDS011;30039;51.462;6.892;2023-04-24T03:17:20;9.65;;;5.40;;
44328;SDS011;30039;51.462;6.892;2023-04-24T03:20:06;9.45;;;5.50;;
44328;SDS011;30039;51.462;6.892;2023-04-24T03:22:53;12.80;;;5.63;;
44328;SDS011;30039;51.462;6.892;2023-04-24T03:25:39;11.88;;;5.43;;
44328;SDS011;30039;51.462;6.892;2023-04-24T03:28:24;13.32;;;5.95;;
44328;SDS011;30039;51.462;6.892;2023-04-24T03:31:10;11.65;;;5.47;;
44328;SDS011;30039;51.462;6.892;2023-04-24T03:33:56;13.82;;;5.40;;
44328;SDS011;30039;51.462;6.892;2023-04-24T03:36:41;13.02;;;6.28;;
44328;SDS011;30039;51.462;6.892;2023-04-24T03:39:27;9.40;;;5.72;;
44328;SDS011;30039;51.462;6.892;2023-04-24T03:42:12;10.95;;;6.10;;
44328;SDS011;30039;51.462;6.892;2023-04-24T03:44:58;13.02;;;6.68;;
44328;SDS011;30039;51.462;6.892;2023-04-24T03:47:44;13.57;;;6.18;;
44328;SDS011;30039;51.462;6.892;2023-04-24T03:50:30;12.18;;;5.78;;
44328;SDS011;30039;51.462;6.892;2023-04-24T03:53:15;12.75;;;6.25;;
44328;SDS011;30039;51.462;6.892;2023-04-24T03:56:01;9.98;;;5.95;;
44328;SDS011;30039;51.462;6.892;2023-04-24T03:58:47;9.00;;;6.35;;
44328;SDS011;30039;51.462;6.892;2023-04-24T04:01:32;18.40;;;6.45;;
44328;SDS011;30039;51.462;6.892;2023-04-24T04:04:22;13.15;;;5.88;;
44328;SDS011;30039;51.462;6.892;2023-04-24T04:07:07;9.70;;;5.70;;
44328;SDS011;30039;51.462;6.892;2023-04-24T04:09:53;11.45;;;5.88;;
44328;SDS011;30039;51.462;6.892;2023-04-24T04:12:39;10.27;;;5.70;;
44328;SDS011;30039;51.462;6.892;2023-04-24T04:15:27;11.00;;;5.70;;
44328;SDS011;30039;51.462;6.892;2023-04-24T04:18:12;10.55;;;5.90;;
44328;SDS011;30039;51.462;6.892;2023-04-24T04:20:58;8.88;;;5.55;;
44328;SDS011;30039;51.462;6.892;2023-04-24T04:23:44;12.75;;;5.82;;
44328;SDS011;30039;51.462;6.892;2023-04-24T04:26:29;10.32;;;6.18;;
44328;SDS011;30039;51.462;6.892;2023-04-24T04:29:17;11.10;;;6.00;;
44328;SDS011;30039;51.462;6.892;2023-04-24T04:32:06;9.60;;;5.63;;
44328;SDS011;30039;51.462;6.892;2023-04-24T04:34:52;10.77;;;6.03;;
44328;SDS011;30039;51.462;6.892;2023-04-24T04:37:38;8.23;;;5.20;;
44328;SDS011;30039;51.462;6.892;2023-04-24T04:40:25;12.55;;;6.05;;
44328;SDS011;30039;51.462;6.892;2023-04-24T04:43:12;10.88;;;5.57;;
44328;SDS011;30039;51.462;6.892;2023-04-24T04:45:58;12.80;;;5.47;;
44328;SDS011;30039;51.462;6.892;2023-04-24T04:48:46;12.30;;;5.50;;
44328;SDS011;30039;51.462;6.892;2023-04-24T04:51:31;8.80;;;5.63;;
44328;SDS011;30039;51.462;6.892;2023-04-24T04:54:17;10.77;;;5.22;;
44328;SDS011;30039;51.462;6.892;2023-04-24T04:57:02;9.38;;;5.28;;
44328;SDS011;30039;51.462;6.892;2023-04-24T04:59:49;11.27;;;5.72;;
44328;SDS011;30039;51.462;6.892;2023-04-24T05:02:34;7.97;;;5.00;;
44328;SDS011;30039;51.462;6.892;2023-04-24T05:05:20;11.68;;;5.82;;
44328;SDS011;30039;51.462;6.892;2023-04-24T05:08:07;12.15;;;5.53;;
44328;SDS011;30039;51.462;6.892;2023-04-24T05:10:53;10.60;;;5.32;;
44328;SDS011;30039;51.462;6.892;2023-04-24T05:13:39;7.53;;;4.80;;
44328;SDS011;30039;51.462;6.892;2023-04-24T05:16:25;8.27;;;5.03;;
44328;SDS011;30039;51.462;6.892;2023-04-24T05:19:10;9.23;;;5.10;;
44328;SDS011;30039;51.462;6.892;2023-04-24T05:22:00;10.77;;;5.00;;
44328;SDS011;30039;51.462;6.892;2023-04-24T05:24:48;9.85;;;4.85;;
44328;SDS011;30039;51.462;6.892;2023-04-24T05:27:34;8.30;;;5.43;;
44328;SDS011;30039;51.462;6.892;2023-04-24T05:30:19;8.07;;;5.00;;
44328;SDS011;30039;51.462;6.892;2023-04-24T05:33:05;7.90;;;5.53;;
44328;SDS011;30039;51.462;6.892;2023-04-24T05:35:51;8.07;;;5.07;;
44328;SDS011;30039;51.462;6.892;2023-04-24T05:38:36;8.35;;;4.82;;
44328;SDS011;30039;51.462;6.892;2023-04-24T05:41:22;6.65;;;5.25;;
44328;SDS011;30039;51.462;6.892;2023-04-24T05:44:08;11.07;;;5.35;;
44328;SDS011;30039;51.462;6.892;2023-04-24T05:46:53;9.50;;;5.50;;
44328;SDS011;30039;51.462;6.892;2023-04-24T05:49:41;8.98;;;5.45;;
44328;SDS011;30039;51.462;6.892;2023-04-24T05:52:27;9.07;;;5.70;;
44328;SDS011;30039;51.462;6.892;2023-04-24T05:55:12;7.97;;;4.85;;
44328;SDS011;30039;51.462;6.892;2023-04-24T05:57:59;9.10;;;5.65;;
44328;SDS011;30039;51.462;6.892;2023-04-24T06:00:45;10.90;;;6.00;;
44328;SDS011;30039;51.462;6.892;2023-04-24T06:03:32;9.70;;;5.22;;
44328;SDS011;30039;51.462;6.892;2023-04-24T06:06:19;6.13;;;4.70;;
44328;SDS011;30039;51.462;6.892;2023-04-24T06:09:04;8.68;;;5.60;;
44328;SDS011;30039;51.462;6.892;2023-04-24T06:11:50;8.02;;;5.28;;
44328;SDS011;30039;51.462;6.892;2023-04-24T06:14:38;9.35;;;4.63;;
44328;SDS011;30039;51.462;6.892;2023-04-24T06:17:23;7.05;;;4.25;;
44328;SDS011;30039;51.462;6.892;2023-04-24T06:20:09;7.00;;;4.82;;
44328;SDS011;30039;51.462;6.892;2023-04-24T06:22:56;5.57;;;4.45;;
44328;SDS011;30039;51.462;6.892;2023-04-24T06:25:42;8.43;;;4.65;;
44328;SDS011;30039;51.462;6.892;2023-04-24T06:28:27;7.80;;;4.63;;
44328;SDS011;30039;51.462;6.892;2023-04-24T06:31:13;7.57;;;4.50;;
44328;SDS011;30039;51.462;6.892;2023-04-24T06:33:59;8.13;;;4.93;;
44328;SDS011;30039;51.462;6.892;2023-04-24T06:36:46;6.82;;;3.78;;
44328;SDS011;30039;51.462;6.892;2023-04-24T06:39:31;9.07;;;4.57;;
44328;SDS011;30039;51.462;6.892;2023-04-24T06:42:17;6.40;;;4.20;;
44328;SDS011;30039;51.462;6.892;2023-04-24T06:45:03;7.90;;;4.00;;
44328;SDS011;30039;51.462;6.892;2023-04-24T06:47:49;6.13;;;4.05;;
44328;SDS011;30039;51.462;6.892;2023-04-24T06:50:34;5.78;;;3.85;;
44328;SDS011;30039;51.462;6.892;2023-04-24T06:53:20;7.70;;;4.18;;
44328;SDS011;30039;51.462;6.892;2023-04-24T06:56:06;5.68;;;3.65;;
44328;SDS011;30039;51.462;6.892;2023-04-24T06:58:52;4.40;;;3.50;;
44328;SDS011;30039;51.462;6.892;2023-04-24T07:01:38;6.63;;;3.92;;
44328;SDS011;30039;51.462;6.892;2023-04-24T07:04:24;5.57;;;2.90;;
44328;SDS011;30039;51.462;6.892;2023-04-24T07:07:11;5.90;;;3.53;;
44328;SDS011;30039;51.462;6.892;2023-04-24T07:09:58;6.05;;;3.15;;
44328;SDS011;30039;51.462;6.892;2023-04-24T07:12:44;5.95;;;3.13;;
44328;SDS011;30039;51.462;6.892;2023-04-24T07:15:29;5.68;;;3.13;;
44328;SDS011;30039;51.462;6.892;2023-04-24T07:18:16;5.30;;;2.60;;
44328;SDS011;30039;51.462;6.892;2023-04-24T07:21:01;5.30;;;2.85;;
44328;SDS011;30039;51.462;6.892;2023-04-24T07:23:47;4.15;;;2.30;;
44328;SDS011;30039;51.462;6.892;2023-04-24T07:26:33;4.85;;;2.55;;
44328;SDS011;30039;51.462;6.892;2023-04-24T07:29:18;3.38;;;2.33;;
44328;SDS011;30039;51.462;6.892;2023-04-24T07:32:04;3.45;;;2.30;;
44328;SDS011;30039;51.462;6.892;2023-04-24T07:34:51;4.68;;;1.70;;
44328;SDS011;30039;51.462;6.892;2023-04-24T07:37:37;4.68;;;2.42;;
44328;SDS011;30039;51.462;6.892;2023-04-24T07:40:22;4.32;;;2.00;;
44328;SDS011;30039;51.462;6.892;2023-04-24T07:43:08;3.20;;;2.10;;
44328;SDS011;30039;51.462;6.892;2023-04-24T07:45:54;6.55;;;2.28;;
44328;SDS011;30039;51.462;6.892;2023-04-24T07:48:40;2.35;;;1.40;;
44328;SDS011;30039;51.462;6.892;2023-04-24T07:51:26;2.30;;;1.35;;
44328;SDS011;30039;51.462;6.892;2023-04-24T07:54:12;3.42;;;1.60;;
44328;SDS011;30039;51.462;6.892;2023-04-24T07:56:58;2.80;;;1.52;;
44328;SDS011;30039;51.462;6.892;2023-04-24T07:59:44;3.13;;;1.50;;
44328;SDS011;30039;51.462;6.892;2023-04-24T08:02:29;3.40;;;1.15;;
44328;SDS011;30039;51.462;6.892;2023-04-24T08:05:15;1.45;;;0.90;;
44328;SDS011;30039;51.462;6.892;2023-04-24T08:08:01;3.13;;;1.00;;
44328;SDS011;30039;51.462;6.892;2023-04-24T08:10:46;2.88;;;1.10;;
44328;SDS011;30039;51.462;6.892;2023-04-24T08:13:32;2.10;;;1.00;;
44328;SDS011;30039;51.462;6.892;2023-04-24T08:16:18;2.80;;;1.45;;
44328;SDS011;30039;51.462;6.892;2023-04-24T08:19:03;3.80;;;1.50;;
44328;SDS011;30039;51.462;6.892;2023-04-24T08:21:49;3.38;;;1.40;;
44328;SDS011;30039;51.462;6.892;2023-04-24T08:24:35;5.07;;;1.65;;
44328;SDS011;30039;51.462;6.892;2023-04-24T08:27:20;4.25;;;1.63;;
44328;SDS011;30039;51.462;6.892;2023-04-24T08:30:06;3.08;;;1.55;;
44328;SDS011;30039;51.462;6.892;2023-04-24T08:32:52;2.30;;;1.58;;
44328;SDS011;30039;51.462;6.892;2023-04-24T08:35:38;4.72;;;1.70;;
44328;SDS011;30039;51.462;6.892;2023-04-24T08:38:24;2.30;;;1.30;;
44328;SDS011;30039;51.462;6.892;2023-04-24T08:41:10;2.45;;;1.45;;
44328;SDS011;30039;51.462;6.892;2023-04-24T08:43:56;5.25;;;1.50;;
44328;SDS011;30039;51.462;6.892;2023-04-24T08:46:43;1.83;;;0.88;;
44328;SDS011;30039;51.462;6.892;2023-04-24T08:49:31;1.98;;;1.10;;
44328;SDS011;30039;51.462;6.892;2023-04-24T08:52:16;3.05;;;1.17;;
44328;SDS011;30039;51.462;6.892;2023-04-24T08:55:04;1.27;;;0.93;;
44328;SDS011;30039;51.462;6.892;2023-04-24T08:57:52;1.75;;;1.00;;
44328;SDS011;30039;51.462;6.892;2023-04-24T09:00:39;2.47;;;1.00;;
44328;SDS011;30039;51.462;6.892;2023-04-24T09:03:26;1.27;;;0.80;;
44328;SDS011;30039;51.462;6.892;2023-04-24T09:06:12;1.73;;;1.15;;
44328;SDS011;30039;51.462;6.892;2023-04-24T09:09:01;1.55;;;0.85;;
44328;SDS011;30039;51.462;6.892;2023-04-24T09:11:47;1.75;;;1.00;;
44328;SDS011;30039;51.462;6.892;2023-04-24T09:14:34;1.00;;;0.90;;
44328;SDS011;30039;51.462;6.892;2023-04-24T09:17:21;2.10;;;1.30;;
44328;SDS011;30039;51.462;6.892;2023-04-24T09:20:08;4.15;;;1.38;;
44328;SDS011;30039;51.462;6.892;2023-04-24T09:22:54;4.55;;;2.65;;
44328;SDS011;30039;51.462;6.892;2023-04-24T09:25:40;4.78;;;2.90;;
44328;SDS011;30039;51.462;6.892;2023-04-24T09:28:31;5.50;;;3.38;;
44328;SDS011;30039;51.462;6.892;2023-04-24T09:31:18;7.13;;;3.03;;
44328;SDS011;30039;51.462;6.892;2023-04-24T09:34:04;4.32;;;2.60;;
44328;SDS011;30039;51.462;6.892;2023-04-24T09:36:53;4.88;;;2.45;;
44328;SDS011;30039;51.462;6.892;2023-04-24T09:39:40;3.55;;;2.10;;
44328;SDS011;30039;51.462;6.892;2023-04-24T09:42:26;3.75;;;2.22;;
44328;SDS011;30039;51.462;6.892;2023-04-24T09:45:14;5.38;;;3.00;;
44328;SDS011;30039;51.462;6.892;2023-04-24T09:48:00;4.47;;;2.30;;
44328;SDS011;30039;51.462;6.892;2023-04-24T09:50:46;3.58;;;2.50;;
44328;SDS011;30039;51.462;6.892;2023-04-24T09:53:32;3.83;;;2.45;;
44328;SDS011;30039;51.462;6.892;2023-04-24T09:56:18;3.72;;;2.80;;
44328;SDS011;30039;51.462;6.892;2023-04-24T09:59:06;3.58;;;2.67;;
44328;SDS011;30039;51.462;6.892;2023-04-24T10:01:51;5.93;;;3.40;;
44328;SDS011;30039;51.462;6.892;2023-04-24T10:04:37;5.45;;;3.00;;
44328;SDS011;30039;51.462;6.892;2023-04-24T10:07:25;7.35;;;3.58;;
44328;SDS011;30039;51.462;6.892;2023-04-24T10:10:12;6.00;;;3.17;;
44328;SDS011;30039;51.462;6.892;2023-04-24T10:12:58;5.60;;;3.15;;
44328;SDS011;30039;51.462;6.892;2023-04-24T10:15:45;6.10;;;3.00;;
44328;SDS011;30039;51.462;6.892;2023-04-24T10:18:33;6.50;;;3.45;;
44328;SDS011;30039;51.462;6.892;2023-04-24T10:21:20;7.93;;;3.70;;
44328;SDS011;30039;51.462;6.892;2023-04-24T10:24:07;7.15;;;2.83;;
44328;SDS011;30039;51.462;6.892;2023-04-24T10:26:52;5.97;;;2.72;;
44328;SDS011;30039;51.462;6.892;2023-04-24T10:29:38;6.75;;;2.70;;
44328;SDS011;30039;51.462;6.892;2023-04-24T10:32:25;4.90;;;2.70;;
44328;SDS011;30039;51.462;6.892;2023-04-24T10:35:12;8.80;;;2.70;;
44328;SDS011;30039;51.462;6.892;2023-04-24T10:38:03;8.27;;;2.92;;
44328;SDS011;30039;51.462;6.892;2023-04-24T10:40:50;7.07;;;3.05;;
44328;SDS011;30039;51.462;6.892;2023-04-24T10:43:36;9.13;;;2.88;;
44328;SDS011;30039;51.462;6.892;2023-04-24T10:46:22;7.65;;;3.30;;
44328;SDS011;30039;51.462;6.892;2023-04-24T10:49:08;8.32;;;2.92;;
44328;SDS011;30039;51.462;6.892;2023-04-24T10:52:00;9.35;;;3.20;;
44328;SDS011;30039;51.462;6.892;2023-04-24T10:54:46;13.15;;;3.78;;
44328;SDS011;30039;51.462;6.892;2023-04-24T10:57:32;11.88;;;3.78;;
44328;SDS011;30039;51.462;6.892;2023-04-24T11:00:19;6.40;;;2.90;;
44328;SDS011;30039;51.462;6.892;2023-04-24T11:03:22;5.00;;;2.67;;
44328;SDS011;30039;51.462;6.892;2023-04-24T11:06:08;7.03;;;2.72;;
44328;SDS011;30039;51.462;6.892;2023-04-24T11:08:58;7.75;;;3.33;;
44328;SDS011;30039;51.462;6.892;2023-04-24T11:11:46;10.02;;;3.58;;
44328;SDS011;30039;51.462;6.892;2023-04-24T11:17:37;9.07;;;3.70;;
44328;SDS011;30039;51.462;6.892;2023-04-24T11:20:25;10.27;;;3.40;;
44328;SDS011;30039;51.462;6.892;2023-04-24T11:23:12;7.78;;;3.25;;
44328;SDS011;30039;51.462;6.892;2023-04-24T11:26:11;9.63;;;3.33;;
44328;SDS011;30039;51.462;6.892;2023-04-24T11:29:07;8.27;;;3.47;;
44328;SDS011;30039;51.462;6.892;2023-04-24T11:31:53;12.93;;;3.30;;
44328;SDS011;30039;51.462;6.892;2023-04-24T11:34:39;10.23;;;3.35;;
44328;SDS011;30039;51.462;6.892;2023-04-24T11:37:26;6.43;;;2.72;;
44328;SDS011;30039;51.462;6.892;2023-04-24T11:40:13;8.00;;;2.80;;
44328;SDS011;30039;51.462;6.892;2023-04-24T11:42:59;7.15;;;2.17;;
44328;SDS011;30039;51.462;6.892;2023-04-24T11:45:48;9.77;;;2.38;;
44328;SDS011;30039;51.462;6.892;2023-04-24T11:48:36;10.13;;;2.55;;
44328;SDS011;30039;51.462;6.892;2023-04-24T11:51:26;6.85;;;2.90;;
44328;SDS011;30039;51.462;6.892;2023-04-24T11:54:12;5.53;;;2.50;;
44328;SDS011;30039;51.462;6.892;2023-04-24T11:56:57;8.70;;;2.53;;
44328;SDS011;30039;51.462;6.892;2023-04-24T11:59:43;8.05;;;2.75;;
44328;SDS011;30039;51.462;6.892;2023-04-24T12:02:28;6.38;;;2.53;;
44328;SDS011;30039;51.462;6.892;2023-04-24T12:05:19;5.05;;;2.50;;
44328;SDS011;30039;51.462;6.892;2023-04-24T12:08:06;6.55;;;2.55;;
44328;SDS011;30039;51.462;6.892;2023-04-24T12:10:52;6.25;;;2.47;;
44328;SDS011;30039;51.462;6.892;2023-04-24T12:13:37;5.55;;;2.50;;
44328;SDS011;30039;51.462;6.892;2023-04-24T12:16:23;20.33;;;2.65;;
44328;SDS011;30039;51.462;6.892;2023-04-24T12:19:11;5.32;;;2.22;;
44328;SDS011;30039;51.462;6.892;2023-04-24T12:22:03;7.75;;;2.88;;
44328;SDS011;30039;51.462;6.892;2023-04-24T12:24:56;5.85;;;2.63;;
44328;SDS011;30039;51.462;6.892;2023-04-24T12:27:45;6.85;;;2.80;;
44328;SDS011;30039;51.462;6.892;2023-04-24T12:30:34;4.78;;;2.15;;
44328;SDS011;30039;51.462;6.892;2023-04-24T12:33:20;3.45;;;1.70;;
44328;SDS011;30039;51.462;6.892;2023-04-24T12:36:05;2.75;;;1.48;;
44328;SDS011;30039;51.462;6.892;2023-04-24T12:38:52;4.50;;;1.85;;
44328;SDS011;30039;51.462;6.892;2023-04-24T12:41:38;4.32;;;1.70;;
44328;SDS011;30039;51.462;6.892;2023-04-24T12:44:34;4.95;;;2.10;;
44328;SDS011;30039;51.462;6.892;2023-04-24T12:47:20;4.88;;;1.50;;
44328;SDS011;30039;51.462;6.892;2023-04-24T12:50:09;2.13;;;1.30;;
44328;SDS011;30039;51.462;6.892;2023-04-24T12:52:56;5.18;;;1.63;;
44328;SDS011;30039;51.462;6.892;2023-04-24T12:55:41;2.50;;;1.50;;
44328;SDS011;30039;51.462;6.892;2023-04-24T12:58:27;5.03;;;1.83;;
44328;SDS011;30039;51.462;6.892;2023-04-24T13:01:13;4.78;;;1.70;;
44328;SDS011;30039;51.462;6.892;2023-04-24T13:03:59;4.75;;;1.60;;
44328;SDS011;30039;51.462;6.892;2023-04-24T13:06:46;2.83;;;1.50;;
44328;SDS011;30039;51.462;6.892;2023-04-24T13:09:34;4.43;;;1.40;;
44328;SDS011;30039;51.462;6.892;2023-04-24T13:12:19;3.53;;;1.40;;
44328;SDS011;30039;51.462;6.892;2023-04-24T13:15:06;2.35;;;1.23;;
44328;SDS011;30039;51.462;6.892;2023-04-24T13:17:51;2.97;;;1.13;;
44328;SDS011;30039;51.462;6.892;2023-04-24T13:20:37;2.00;;;1.00;;
44328;SDS011;30039;51.462;6.892;2023-04-24T13:23:23;7.05;;;1.13;;
44328;SDS011;30039;51.462;6.892;2023-04-24T13:26:09;3.33;;;1.05;;
44328;SDS011;30039;51.462;6.892;2023-04-24T13:28:54;2.80;;;1.00;;
44328;SDS011;30039;51.462;6.892;2023-04-24T13:31:40;4.85;;;1.40;;
44328;SDS011;30039;51.462;6.892;2023-04-24T13:34:26;4.00;;;1.65;;
44328;SDS011;30039;51.462;6.892;2023-04-24T13:37:12;4.22;;;1.17;;
44328;SDS011;30039;51.462;6.892;2023-04-24T13:39:58;3.40;;;1.23;;
44328;SDS011;30039;51.462;6.892;2023-04-24T13:42:43;2.72;;;1.27;;
44328;SDS011;30039;51.462;6.892;2023-04-24T13:45:29;5.28;;;1.25;;
44328;SDS011;30039;51.462;6.892;2023-04-24T13:48:15;2.72;;;1.20;;
44328;SDS011;30039;51.462;6.892;2023-04-24T13:51:00;2.33;;;1.08;;
44328;SDS011;30039;51.462;6.892;2023-04-24T13:53:46;4.05;;;1.10;;
44328;SDS011;30039;51.462;6.892;2023-04-24T13:56:32;1.25;;;0.82;;
44328;SDS011;30039;51.462;6.892;2023-04-24T13:59:18;1.88;;;1.02;;
44328;SDS011;30039;51.462;6.892;2023-04-24T14:02:04;3.10;;;1.20;;
44328;SDS011;30039;51.462;6.892;2023-04-24T14:04:50;6.47;;;1.40;;
44328;SDS011;30039;51.462;6.892;2023-04-24T14:07:36;2.20;;;1.30;;
44328;SDS011;30039;51.462;6.892;2023-04-24T14:10:21;4.55;;;1.23;;
44328;SDS011;30039;51.462;6.892;2023-04-24T14:13:07;3.95;;;1.30;;
44328;SDS011;30039;51.462;6.892;2023-04-24T14:15:53;4.72;;;1.63;;
44328;SDS011;30039;51.462;6.892;2023-04-24T14:18:38;4.95;;;1.65;;
44328;SDS011;30039;51.462;6.892;2023-04-24T14:21:24;6.28;;;3.33;;
44328;SDS011;30039;51.462;6.892;2023-04-24T14:24:10;2.05;;;1.23;;
44328;SDS011;30039;51.462;6.892;2023-04-24T14:26:55;3.25;;;1.60;;
44328;SDS011;30039;51.462;6.892;2023-04-24T14:29:41;2.13;;;1.20;;
44328;SDS011;30039;51.462;6.892;2023-04-24T14:32:29;2.88;;;1.05;;
44328;SDS011;30039;51.462;6.892;2023-04-24T14:35:14;2.85;;;1.60;;
44328;SDS011;30039;51.462;6.892;2023-04-24T14:38:00;2.70;;;1.10;;
44328;SDS011;30039;51.462;6.892;2023-04-24T14:40:46;5.15;;;1.50;;
44328;SDS011;30039;51.462;6.892;2023-04-24T14:43:31;2.35;;;1.10;;
44328;SDS011;30039;51.462;6.892;2023-04-24T14:46:18;2.17;;;1.20;;
44328;SDS011;30039;51.462;6.892;2023-04-24T14:49:03;3.60;;;1.65;;
44328;SDS011;30039;51.462;6.892;2023-04-24T14:51:49;4.25;;;1.42;;
44328;SDS011;30039;51.462;6.892;2023-04-24T14:54:34;2.88;;;1.30;;
44328;SDS011;30039;51.462;6.892;2023-04-24T14:57:20;3.03;;;1.80;;
44328;SDS011;30039;51.462;6.892;2023-04-24T15:00:06;5.18;;;1.80;;
44328;SDS011;30039;51.462;6.892;2023-04-24T15:02:54;5.63;;;1.90;;
44328;SDS011;30039;51.462;6.892;2023-04-24T15:05:40;2.78;;;1.48;;
44328;SDS011;30039;51.462;6.892;2023-04-24T15:08:26;3.35;;;1.70;;
44328;SDS011;30039;51.462;6.892;2023-04-24T15:11:11;3.05;;;1.60;;
44328;SDS011;30039;51.462;6.892;2023-04-24T15:13:57;3.10;;;1.55;;
44328;SDS011;30039;51.462;6.892;2023-04-24T15:16:43;7.40;;;2.08;;
44328;SDS011;30039;51.462;6.892;2023-04-24T15:19:29;4.10;;;1.83;;
44328;SDS011;30039;51.462;6.892;2023-04-24T15:22:14;3.55;;;1.38;;
44328;SDS011;30039;51.462;6.892;2023-04-24T15:25:00;5.60;;;1.42;;
44328;SDS011;30039;51.462;6.892;2023-04-24T15:27:46;3.88;;;1.40;;
44328;SDS011;30039;51.462;6.892;2023-04-24T15:30:32;3.72;;;1.27;;
44328;SDS011;30039;51.462;6.892;2023-04-24T15:33:18;3.40;;;1.65;;
44328;SDS011;30039;51.462;6.892;2023-04-24T15:36:03;2.25;;;1.20;;
44328;SDS011;30039;51.462;6.892;2023-04-24T15:38:49;1.63;;;1.00;;
44328;SDS011;30039;51.462;6.892;2023-04-24T15:41:35;2.33;;;0.85;;
44328;SDS011;30039;51.462;6.892;2023-04-24T15:44:21;3.05;;;1.35;;
44328;SDS011;30039;51.462;6.892;2023-04-24T15:47:07;3.10;;;1.30;;
44328;SDS011;30039;51.462;6.892;2023-04-24T15:49:52;1.80;;;1.08;;
44328;SDS011;30039;51.462;6.892;2023-04-24T15:52:38;5.45;;;1.20;;
44328;SDS011;30039;51.462;6.892;2023-04-24T15:55:26;2.03;;;1.10;;
44328;SDS011;30039;51.462;6.892;2023-04-24T15:58:20;3.33;;;1.05;;
44328;SDS011;30039;51.462;6.892;2023-04-24T16:01:15;2.03;;;1.20;;
44328;SDS011;30039;51.462;6.892;2023-04-24T16:04:06;1.13;;;1.00;;
44328;SDS011;30039;51.462;6.892;2023-04-24T16:06:55;1.60;;;1.10;;
44328;SDS011;30039;51.462;6.892;2023-04-24T16:09:44;3.15;;;1.50;;
44328;SDS011;30039;51.462;6.892;2023-04-24T16:12:39;5.07;;;1.58;;
44328;SDS011;30039;51.462;6.892;2023-04-24T16:15:26;2.90;;;1.20;;
44328;SDS011;30039;51.462;6.892;2023-04-24T16:18:13;7.22;;;1.60;;
44328;SDS011;30039;51.462;6.892;2023-04-24T16:21:03;6.00;;;1.40;;
44328;SDS011;30039;51.462;6.892;2023-04-24T16:23:50;3.97;;;1.67;;
44328;SDS011;30039;51.462;6.892;2023-04-24T16:26:36;3.67;;;1.63;;
44328;SDS011;30039;51.462;6.892;2023-04-24T16:29:21;3.22;;;1.40;;
44328;SDS011;30039;51.462;6.892;2023-04-24T16:32:08;4.93;;;1.50;;
44328;SDS011;30039;51.462;6.892;2023-04-24T16:34:53;2.33;;;1.40;;
44328;SDS011;30039;51.462;6.892;2023-04-24T16:37:39;2.75;;;1.42;;
44328;SDS011;30039;51.462;6.892;2023-04-24T16:40:25;2.45;;;1.13;;
44328;SDS011;30039;51.462;6.892;2023-04-24T16:43:10;2.05;;;1.20;;